sensor_id;sensor_type;location;lat;lon;timestamp;temperature;humidity
28837;DHT22;50669;50.982;11.022;2022-11-15T00:01:17;8.60;99.90
28837;DHT22;50669;50.982;11.022;2022-11-15T00:03:43;8.70;99.90
28837;DHT22;50669;50.982;11.022;2022-11-15T00:06:09;8.70;99.90
28837;DHT22;50669;50.982;11.022;2022-11-15T00:08:35;8.70;99.90
28837;DHT22;50669;50.982;11.022;2022-11-15T00:11:02;8.70;99.90
28837;DHT22;50669;50.982;11.022;2022-11-15T00:13:29;8.60;99.90
28837;DHT22;50669;50.982;11.022;2022-11-15T00:15:57;8.60;99.90
28837;DHT22;50669;50.982;11.022;2022-11-15T00:18:23;8.60;99.90
28837;DHT22;50669;50.982;11.022;2022-11-15T00:20:49;8.60;99.90
28837;DHT22;50669;50.982;11.022;2022-11-15T00:23:14;8.60;99.90
28837;DHT22;50669;50.982;11.022;2022-11-15T00:25:40;8.60;99.90
28837;DHT22;50669;50.982;11.022;2022-11-15T00:28:06;8.60;99.90
28837;DHT22;50669;50.982;11.022;2022-11-15T00:30:32;8.60;99.90
28837;DHT22;50669;50.982;11.022;2022-11-15T00:33:02;8.70;99.90
28837;DHT22;50669;50.982;11.022;2022-11-15T00:35:28;8.80;99.90
28837;DHT22;50669;50.982;11.022;2022-11-15T00:37:58;9.00;99.90
28837;DHT22;50669;50.982;11.022;2022-11-15T00:40:24;9.00;99.90
28837;DHT22;50669;50.982;11.022;2022-11-15T00:42:50;9.10;99.90
28837;DHT22;50669;50.982;11.022;2022-11-15T00:45:20;9.10;99.90
28837;DHT22;50669;50.982;11.022;2022-11-15T00:47:46;9.20;99.90
28837;DHT22;50669;50.982;11.022;2022-11-15T00:50:15;9.20;99.90
28837;DHT22;50669;50.982;11.022;2022-11-15T00:52:43;9.10;99.90
28837;DHT22;50669;50.982;11.022;2022-11-15T00:55:18;9.10;99.90
28837;DHT22;50669;50.982;11.022;2022-11-15T00:57:45;9.00;99.90
28837;DHT22;50669;50.982;11.022;2022-11-15T01:00:13;8.90;99.90
28837;DHT22;50669;50.982;11.022;2022-11-15T01:02:41;9.00;99.90
28837;DHT22;50669;50.982;11.022;2022-11-15T01:05:09;8.90;99.90
28837;DHT22;50669;50.982;11.022;2022-11-15T01:07:35;8.90;99.90
28837;DHT22;50669;50.982;11.022;2022-11-15T01:10:04;8.90;99.90
28837;DHT22;50669;50.982;11.022;2022-11-15T01:12:30;8.90;99.90
28837;DHT22;50669;50.982;11.022;2022-11-15T01:14:58;8.90;99.90
28837;DHT22;50669;50.982;11.022;2022-11-15T01:17:23;8.90;99.90
28837;DHT22;50669;50.982;11.022;2022-11-15T01:19:49;8.90;99.90
28837;DHT22;50669;50.982;11.022;2022-11-15T01:22:15;8.80;99.90
28837;DHT22;50669;50.982;11.022;2022-11-15T01:24:40;8.80;99.90
28837;DHT22;50669;50.982;11.022;2022-11-15T01:27:06;8.80;99.90
28837;DHT22;50669;50.982;11.022;2022-11-15T01:29:34;8.70;99.90
28837;DHT22;50669;50.982;11.022;2022-11-15T01:32:00;8.80;99.90
28837;DHT22;50669;50.982;11.022;2022-11-15T01:34:26;8.80;99.90
28837;DHT22;50669;50.982;11.022;2022-11-15T01:36:51;8.80;99.90
28837;DHT22;50669;50.982;11.022;2022-11-15T01:39:17;8.80;99.90
28837;DHT22;50669;50.982;11.022;2022-11-15T01:41:43;8.80;99.90
28837;DHT22;50669;50.982;11.022;2022-11-15T01:47:04;8.90;99.90
28837;DHT22;50669;50.982;11.022;2022-11-15T01:49:34;9.00;99.90
28837;DHT22;50669;50.982;11.022;2022-11-15T01:52:02;9.10;99.90
28837;DHT22;50669;50.982;11.022;2022-11-15T01:54:29;9.10;99.90
28837;DHT22;50669;50.982;11.022;2022-11-15T01:56:59;9.10;99.90
28837;DHT22;50669;50.982;11.022;2022-11-15T01:59:26;9.00;99.90
28837;DHT22;50669;50.982;11.022;2022-11-15T02:01:52;9.00;99.90
28837;DHT22;50669;50.982;11.022;2022-11-15T02:04:36;8.90;99.90
28837;DHT22;50669;50.982;11.022;2022-11-15T02:07:04;8.90;99.90
28837;DHT22;50669;50.982;11.022;2022-11-15T02:09:31;8.90;99.90
28837;DHT22;50669;50.982;11.022;2022-11-15T02:11:56;8.80;99.90
28837;DHT22;50669;50.982;11.022;2022-11-15T02:14:27;8.80;99.90
28837;DHT22;50669;50.982;11.022;2022-11-15T02:38:40;9.20;99.90
28837;DHT22;50669;50.982;11.022;2022-11-15T02:41:13;9.30;99.90
28837;DHT22;50669;50.982;11.022;2022-11-15T02:43:58;9.40;99.90
28837;DHT22;50669;50.982;11.022;2022-11-15T02:49:19;9.30;99.90
28837;DHT22;50669;50.982;11.022;2022-11-15T02:51:47;9.30;99.90
28837;DHT22;50669;50.982;11.022;2022-11-15T02:54:29;9.20;99.90
28837;DHT22;50669;50.982;11.022;2022-11-15T02:57:02;9.20;99.90
28837;DHT22;50669;50.982;11.022;2022-11-15T03:05:02;8.80;99.90
28837;DHT22;50669;50.982;11.022;2022-11-15T03:12:41;8.90;99.90
28837;DHT22;50669;50.982;11.022;2022-11-15T03:15:19;9.10;99.90
28837;DHT22;50669;50.982;11.022;2022-11-15T03:18:10;9.10;99.90
28837;DHT22;50669;50.982;11.022;2022-11-15T03:20:37;9.10;99.90
28837;DHT22;50669;50.982;11.022;2022-11-15T03:23:08;9.10;99.90
28837;DHT22;50669;50.982;11.022;2022-11-15T03:25:36;9.00;99.90
28837;DHT22;50669;50.982;11.022;2022-11-15T03:28:09;9.00;99.90
28837;DHT22;50669;50.982;11.022;2022-11-15T03:30:37;8.90;99.90
28837;DHT22;50669;50.982;11.022;2022-11-15T03:33:09;8.80;99.90
28837;DHT22;50669;50.982;11.022;2022-11-15T03:35:40;8.80;99.90
28837;DHT22;50669;50.982;11.022;2022-11-15T03:38:24;8.70;99.90
28837;DHT22;50669;50.982;11.022;2022-11-15T03:41:04;8.70;99.90
28837;DHT22;50669;50.982;11.022;2022-11-15T03:43:34;8.70;99.90
28837;DHT22;50669;50.982;11.022;2022-11-15T03:46:06;8.70;99.90
28837;DHT22;50669;50.982;11.022;2022-11-15T03:48:39;8.80;99.90
28837;DHT22;50669;50.982;11.022;2022-11-15T03:51:06;8.90;99.90
28837;DHT22;50669;50.982;11.022;2022-11-15T03:53:31;9.00;99.90
28837;DHT22;50669;50.982;11.022;2022-11-15T03:55:58;9.10;99.90
28837;DHT22;50669;50.982;11.022;2022-11-15T03:58:23;9.10;99.90
28837;DHT22;50669;50.982;11.022;2022-11-15T04:00:49;9.10;99.90
28837;DHT22;50669;50.982;11.022;2022-11-15T04:03:15;9.20;99.90
28837;DHT22;50669;50.982;11.022;2022-11-15T04:05:43;9.20;99.90
28837;DHT22;50669;50.982;11.022;2022-11-15T04:08:11;9.30;99.90
28837;DHT22;50669;50.982;11.022;2022-11-15T04:10:37;9.20;99.90
28837;DHT22;50669;50.982;11.022;2022-11-15T04:13:07;9.20;99.90
28837;DHT22;50669;50.982;11.022;2022-11-15T04:15:35;9.20;99.90
28837;DHT22;50669;50.982;11.022;2022-11-15T04:18:01;9.20;99.90
28837;DHT22;50669;50.982;11.022;2022-11-15T04:20:30;9.20;99.90
28837;DHT22;50669;50.982;11.022;2022-11-15T04:23:19;9.10;99.90
28837;DHT22;50669;50.982;11.022;2022-11-15T04:26:14;9.00;99.90
28837;DHT22;50669;50.982;11.022;2022-11-15T04:28:44;8.80;99.90
28837;DHT22;50669;50.982;11.022;2022-11-15T04:31:28;8.70;99.90
28837;DHT22;50669;50.982;11.022;2022-11-15T04:33:54;8.70;99.90
28837;DHT22;50669;50.982;11.022;2022-11-15T04:36:22;8.60;99.90
28837;DHT22;50669;50.982;11.022;2022-11-15T04:39:07;8.60;99.90
28837;DHT22;50669;50.982;11.022;2022-11-15T04:41:35;8.50;99.90
28837;DHT22;50669;50.982;11.022;2022-11-15T04:44:01;8.50;99.90
28837;DHT22;50669;50.982;11.022;2022-11-15T04:46:30;8.50;99.90
28837;DHT22;50669;50.982;11.022;2022-11-15T04:48:55;8.40;99.90
28837;DHT22;50669;50.982;11.022;2022-11-15T04:51:26;8.40;99.90
28837;DHT22;50669;50.982;11.022;2022-11-15T04:53:51;8.40;99.90
28837;DHT22;50669;50.982;11.022;2022-11-15T04:56:17;8.40;99.90
28837;DHT22;50669;50.982;11.022;2022-11-15T04:58:42;8.40;99.90
28837;DHT22;50669;50.982;11.022;2022-11-15T05:01:12;8.50;99.90
28837;DHT22;50669;50.982;11.022;2022-11-15T05:03:40;8.60;99.90
28837;DHT22;50669;50.982;11.022;2022-11-15T05:06:25;8.70;99.90
28837;DHT22;50669;50.982;11.022;2022-11-15T05:08:50;8.60;99.90
28837;DHT22;50669;50.982;11.022;2022-11-15T05:11:16;8.60;99.90
28837;DHT22;50669;50.982;11.022;2022-11-15T05:13:42;8.60;99.90
28837;DHT22;50669;50.982;11.022;2022-11-15T05:16:07;8.60;99.90
28837;DHT22;50669;50.982;11.022;2022-11-15T05:18:33;8.60;99.90
28837;DHT22;50669;50.982;11.022;2022-11-15T05:21:09;8.60;99.90
28837;DHT22;50669;50.982;11.022;2022-11-15T05:23:35;8.60;99.90
28837;DHT22;50669;50.982;11.022;2022-11-15T05:26:02;8.60;99.90
28837;DHT22;50669;50.982;11.022;2022-11-15T05:28:29;8.60;99.90
28837;DHT22;50669;50.982;11.022;2022-11-15T05:31:01;8.50;99.90
28837;DHT22;50669;50.982;11.022;2022-11-15T05:33:29;8.50;99.90
28837;DHT22;50669;50.982;11.022;2022-11-15T05:36:06;8.40;99.90
28837;DHT22;50669;50.982;11.022;2022-11-15T05:38:35;8.40;99.90
28837;DHT22;50669;50.982;11.022;2022-11-15T05:41:02;8.30;99.90
28837;DHT22;50669;50.982;11.022;2022-11-15T05:43:30;8.30;99.90
28837;DHT22;50669;50.982;11.022;2022-11-15T05:46:00;8.30;99.90
28837;DHT22;50669;50.982;11.022;2022-11-15T05:48:27;8.20;99.90
28837;DHT22;50669;50.982;11.022;2022-11-15T05:50:53;8.20;99.90
28837;DHT22;50669;50.982;11.022;2022-11-15T05:53:21;8.10;99.90
28837;DHT22;50669;50.982;11.022;2022-11-15T05:55:48;8.10;99.90
28837;DHT22;50669;50.982;11.022;2022-11-15T05:58:17;8.00;99.90
28837;DHT22;50669;50.982;11.022;2022-11-15T06:00:45;8.00;99.90
28837;DHT22;50669;50.982;11.022;2022-11-15T06:03:11;8.00;99.90
28837;DHT22;50669;50.982;11.022;2022-11-15T06:05:41;8.00;99.90
28837;DHT22;50669;50.982;11.022;2022-11-15T06:08:09;8.00;99.90
28837;DHT22;50669;50.982;11.022;2022-11-15T06:10:39;8.00;99.90
28837;DHT22;50669;50.982;11.022;2022-11-15T06:13:05;8.00;99.90
28837;DHT22;50669;50.982;11.022;2022-11-15T06:15:32;8.00;99.90
28837;DHT22;50669;50.982;11.022;2022-11-15T06:18:01;8.00;99.90
28837;DHT22;50669;50.982;11.022;2022-11-15T06:20:28;8.10;99.90
28837;DHT22;50669;50.982;11.022;2022-11-15T06:25:24;8.20;99.90
28837;DHT22;50669;50.982;11.022;2022-11-15T06:27:58;8.20;99.90
28837;DHT22;50669;50.982;11.022;2022-11-15T06:30:29;8.20;99.90
28837;DHT22;50669;50.982;11.022;2022-11-15T06:33:02;8.20;99.90
28837;DHT22;50669;50.982;11.022;2022-11-15T06:35:29;8.20;99.90
28837;DHT22;50669;50.982;11.022;2022-11-15T06:38:05;8.20;99.90
28837;DHT22;50669;50.982;11.022;2022-11-15T06:40:35;8.20;99.90
28837;DHT22;50669;50.982;11.022;2022-11-15T06:43:03;8.20;99.90
28837;DHT22;50669;50.982;11.022;2022-11-15T06:45:30;8.10;99.90
28837;DHT22;50669;50.982;11.022;2022-11-15T06:47:56;8.10;99.90
28837;DHT22;50669;50.982;11.022;2022-11-15T06:50:21;8.10;99.90
28837;DHT22;50669;50.982;11.022;2022-11-15T06:52:47;8.10;99.90
28837;DHT22;50669;50.982;11.022;2022-11-15T06:55:16;8.00;99.90
28837;DHT22;50669;50.982;11.022;2022-11-15T06:57:49;8.00;99.90
28837;DHT22;50669;50.982;11.022;2022-11-15T07:00:17;8.00;99.90
28837;DHT22;50669;50.982;11.022;2022-11-15T07:02:43;8.10;99.90
28837;DHT22;50669;50.982;11.022;2022-11-15T07:05:14;8.00;99.90
28837;DHT22;50669;50.982;11.022;2022-11-15T07:07:40;8.00;99.90
28837;DHT22;50669;50.982;11.022;2022-11-15T07:10:07;8.10;99.90
28837;DHT22;50669;50.982;11.022;2022-11-15T07:12:32;8.10;99.90
28837;DHT22;50669;50.982;11.022;2022-11-15T07:15:00;8.20;99.90
28837;DHT22;50669;50.982;11.022;2022-11-15T07:17:28;8.20;99.90
28837;DHT22;50669;50.982;11.022;2022-11-15T07:19:56;8.20;99.90
28837;DHT22;50669;50.982;11.022;2022-11-15T07:22:25;8.30;99.90
28837;DHT22;50669;50.982;11.022;2022-11-15T07:24:50;8.30;99.90
28837;DHT22;50669;50.982;11.022;2022-11-15T07:27:16;8.30;99.90
28837;DHT22;50669;50.982;11.022;2022-11-15T07:29:42;8.40;99.90
28837;DHT22;50669;50.982;11.022;2022-11-15T07:32:07;8.40;99.90
28837;DHT22;50669;50.982;11.022;2022-11-15T07:34:34;8.40;99.90
28837;DHT22;50669;50.982;11.022;2022-11-15T07:37:02;8.40;99.90
28837;DHT22;50669;50.982;11.022;2022-11-15T07:39:27;8.40;99.90
28837;DHT22;50669;50.982;11.022;2022-11-15T07:41:55;8.40;99.90
28837;DHT22;50669;50.982;11.022;2022-11-15T07:44:41;8.40;99.90
28837;DHT22;50669;50.982;11.022;2022-11-15T07:47:07;8.40;99.90
28837;DHT22;50669;50.982;11.022;2022-11-15T07:49:32;8.40;99.90
28837;DHT22;50669;50.982;11.022;2022-11-15T07:51:58;8.40;99.90
28837;DHT22;50669;50.982;11.022;2022-11-15T07:54:24;8.50;99.90
28837;DHT22;50669;50.982;11.022;2022-11-15T07:56:51;8.50;99.90
28837;DHT22;50669;50.982;11.022;2022-11-15T07:59:19;8.60;99.90
28837;DHT22;50669;50.982;11.022;2022-11-15T08:01:45;8.70;99.90
28837;DHT22;50669;50.982;11.022;2022-11-15T08:04:13;8.70;99.90
28837;DHT22;50669;50.982;11.022;2022-11-15T08:06:39;8.90;99.90
28837;DHT22;50669;50.982;11.022;2022-11-15T08:09:05;8.90;99.90
28837;DHT22;50669;50.982;11.022;2022-11-15T08:11:32;9.00;99.90
28837;DHT22;50669;50.982;11.022;2022-11-15T08:14:03;9.10;99.90
28837;DHT22;50669;50.982;11.022;2022-11-15T08:16:28;9.20;99.90
28837;DHT22;50669;50.982;11.022;2022-11-15T08:18:57;9.30;99.90
28837;DHT22;50669;50.982;11.022;2022-11-15T08:21:23;9.30;99.90
28837;DHT22;50669;50.982;11.022;2022-11-15T08:23:49;9.50;99.90
28837;DHT22;50669;50.982;11.022;2022-11-15T08:26:14;9.50;99.90
28837;DHT22;50669;50.982;11.022;2022-11-15T08:28:40;9.60;99.90
28837;DHT22;50669;50.982;11.022;2022-11-15T08:31:06;9.70;99.90
28837;DHT22;50669;50.982;11.022;2022-11-15T08:33:32;9.80;99.90
28837;DHT22;50669;50.982;11.022;2022-11-15T08:36:01;9.90;99.90
28837;DHT22;50669;50.982;11.022;2022-11-15T08:38:27;10.00;99.90
28837;DHT22;50669;50.982;11.022;2022-11-15T08:41:02;10.20;99.90
28837;DHT22;50669;50.982;11.022;2022-11-15T08:43:32;10.30;99.90
28837;DHT22;50669;50.982;11.022;2022-11-15T08:45:58;10.40;99.90
28837;DHT22;50669;50.982;11.022;2022-11-15T08:48:24;10.60;99.90
28837;DHT22;50669;50.982;11.022;2022-11-15T08:50:56;10.70;99.90
28837;DHT22;50669;50.982;11.022;2022-11-15T08:53:22;10.90;99.90
28837;DHT22;50669;50.982;11.022;2022-11-15T08:55:48;11.00;99.90
28837;DHT22;50669;50.982;11.022;2022-11-15T08:58:13;11.10;99.90
28837;DHT22;50669;50.982;11.022;2022-11-15T09:00:39;11.30;99.90
28837;DHT22;50669;50.982;11.022;2022-11-15T09:03:05;11.40;99.90
28837;DHT22;50669;50.982;11.022;2022-11-15T09:05:31;11.50;99.90
28837;DHT22;50669;50.982;11.022;2022-11-15T09:07:57;11.60;99.90
28837;DHT22;50669;50.982;11.022;2022-11-15T09:10:23;11.70;99.90
28837;DHT22;50669;50.982;11.022;2022-11-15T09:12:52;11.80;99.90
28837;DHT22;50669;50.982;11.022;2022-11-15T09:15:17;11.90;99.90
28837;DHT22;50669;50.982;11.022;2022-11-15T09:17:43;12.00;99.90
28837;DHT22;50669;50.982;11.022;2022-11-15T09:20:09;12.00;99.90
28837;DHT22;50669;50.982;11.022;2022-11-15T09:22:35;12.10;99.90
28837;DHT22;50669;50.982;11.022;2022-11-15T09:25:04;12.10;99.90
28837;DHT22;50669;50.982;11.022;2022-11-15T09:27:30;12.20;99.90
28837;DHT22;50669;50.982;11.022;2022-11-15T09:29:56;12.20;99.90
28837;DHT22;50669;50.982;11.022;2022-11-15T09:32:22;12.30;99.90
28837;DHT22;50669;50.982;11.022;2022-11-15T09:34:50;12.30;99.90
28837;DHT22;50669;50.982;11.022;2022-11-15T09:37:16;12.30;99.90
28837;DHT22;50669;50.982;11.022;2022-11-15T09:39:42;12.30;99.90
28837;DHT22;50669;50.982;11.022;2022-11-15T09:50:08;12.50;99.90
28837;DHT22;50669;50.982;11.022;2022-11-15T09:52:35;12.60;99.90
28837;DHT22;50669;50.982;11.022;2022-11-15T09:55:02;12.60;99.90
28837;DHT22;50669;50.982;11.022;2022-11-15T09:57:37;12.60;99.90
28837;DHT22;50669;50.982;11.022;2022-11-15T10:00:28;12.60;99.90
28837;DHT22;50669;50.982;11.022;2022-11-15T10:03:33;12.70;99.90
28837;DHT22;50669;50.982;11.022;2022-11-15T10:06:02;13.10;99.90
28837;DHT22;50669;50.982;11.022;2022-11-15T10:09:17;14.00;99.90
28837;DHT22;50669;50.982;11.022;2022-11-15T10:11:28;15.10;99.90
28837;DHT22;50669;50.982;11.022;2022-11-15T10:14:03;16.00;99.90
28837;DHT22;50669;50.982;11.022;2022-11-15T10:24:42;19.20;99.90
28837;DHT22;50669;50.982;11.022;2022-11-15T10:27:15;19.80;99.90
28837;DHT22;50669;50.982;11.022;2022-11-15T10:29:47;19.90;99.90
28837;DHT22;50669;50.982;11.022;2022-11-15T10:32:14;20.70;99.90
28837;DHT22;50669;50.982;11.022;2022-11-15T10:34:41;21.20;99.80
28837;DHT22;50669;50.982;11.022;2022-11-15T10:37:06;22.10;99.00
28837;DHT22;50669;50.982;11.022;2022-11-15T10:39:32;22.90;96.90
28837;DHT22;50669;50.982;11.022;2022-11-15T10:42:25;23.20;94.70
28837;DHT22;50669;50.982;11.022;2022-11-15T10:44:51;23.90;94.30
28837;DHT22;50669;50.982;11.022;2022-11-15T10:47:23;24.60;93.80
28837;DHT22;50669;50.982;11.022;2022-11-15T10:52:22;25.40;89.70
28837;DHT22;50669;50.982;11.022;2022-11-15T10:54:56;25.60;86.90
28837;DHT22;50669;50.982;11.022;2022-11-15T10:57:26;26.10;85.40
28837;DHT22;50669;50.982;11.022;2022-11-15T11:05:35;25.10;77.10
28837;DHT22;50669;50.982;11.022;2022-11-15T11:08:23;24.60;81.40
28837;DHT22;50669;50.982;11.022;2022-11-15T11:16:17;23.60;84.70
28837;DHT22;50669;50.982;11.022;2022-11-15T11:30:14;20.20;86.80
28837;DHT22;50669;50.982;11.022;2022-11-15T11:40:57;19.90;87.60
28837;DHT22;50669;50.982;11.022;2022-11-15T11:52:47;21.10;89.30
28837;DHT22;50669;50.982;11.022;2022-11-15T11:55:29;22.20;84.90
28837;DHT22;50669;50.982;11.022;2022-11-15T11:58:11;22.40;83.50
28837;DHT22;50669;50.982;11.022;2022-11-15T12:00:46;22.30;85.40
28837;DHT22;50669;50.982;11.022;2022-11-15T12:05:50;22.30;85.00
28837;DHT22;50669;50.982;11.022;2022-11-15T12:11:09;22.80;82.30
28837;DHT22;50669;50.982;11.022;2022-11-15T12:13:38;22.80;82.10
28837;DHT22;50669;50.982;11.022;2022-11-15T12:16:31;23.60;82.50
28837;DHT22;50669;50.982;11.022;2022-11-15T12:19:02;24.30;77.90
28837;DHT22;50669;50.982;11.022;2022-11-15T12:21:47;25.00;78.70
28837;DHT22;50669;50.982;11.022;2022-11-15T12:24:17;25.80;77.30
28837;DHT22;50669;50.982;11.022;2022-11-15T12:27:00;26.50;74.30
28837;DHT22;50669;50.982;11.022;2022-11-15T12:29:43;27.40;73.20
28837;DHT22;50669;50.982;11.022;2022-11-15T12:34:52;25.20;72.40
28837;DHT22;50669;50.982;11.022;2022-11-15T12:40:19;22.60;79.90
28837;DHT22;50669;50.982;11.022;2022-11-15T12:45:36;21.20;84.20
28837;DHT22;50669;50.982;11.022;2022-11-15T12:50:59;20.40;87.90
28837;DHT22;50669;50.982;11.022;2022-11-15T12:53:30;20.10;89.30
28837;DHT22;50669;50.982;11.022;2022-11-15T13:12:10;18.80;92.00
28837;DHT22;50669;50.982;11.022;2022-11-15T13:17:40;18.80;92.40
28837;DHT22;50669;50.982;11.022;2022-11-15T13:25:22;18.30;93.10
28837;DHT22;50669;50.982;11.022;2022-11-15T13:27:50;18.20;93.60
28837;DHT22;50669;50.982;11.022;2022-11-15T13:30:27;17.70;96.10
28837;DHT22;50669;50.982;11.022;2022-11-15T13:32:53;17.40;97.10
28837;DHT22;50669;50.982;11.022;2022-11-15T13:35:21;17.10;98.50
28837;DHT22;50669;50.982;11.022;2022-11-15T13:37:48;16.80;99.30
28837;DHT22;50669;50.982;11.022;2022-11-15T13:42:45;16.60;99.90
28837;DHT22;50669;50.982;11.022;2022-11-15T13:45:16;16.60;99.90
28837;DHT22;50669;50.982;11.022;2022-11-15T13:47:51;16.50;99.90
28837;DHT22;50669;50.982;11.022;2022-11-15T13:50:17;16.40;99.90
28837;DHT22;50669;50.982;11.022;2022-11-15T13:52:47;16.30;99.90
28837;DHT22;50669;50.982;11.022;2022-11-15T13:55:17;16.20;99.90
28837;DHT22;50669;50.982;11.022;2022-11-15T13:57:59;16.10;99.90
28837;DHT22;50669;50.982;11.022;2022-11-15T14:02:56;15.90;99.90
28837;DHT22;50669;50.982;11.022;2022-11-15T14:05:24;15.90;99.90
28837;DHT22;50669;50.982;11.022;2022-11-15T14:10:47;15.80;99.90
28837;DHT22;50669;50.982;11.022;2022-11-15T14:13:30;15.70;99.90
28837;DHT22;50669;50.982;11.022;2022-11-15T14:16:14;15.70;99.90
28837;DHT22;50669;50.982;11.022;2022-11-15T14:18:50;15.60;99.90
28837;DHT22;50669;50.982;11.022;2022-11-15T14:21:16;15.50;99.90
28837;DHT22;50669;50.982;11.022;2022-11-15T14:23:42;15.50;99.90
28837;DHT22;50669;50.982;11.022;2022-11-15T14:26:31;15.50;99.90
28837;DHT22;50669;50.982;11.022;2022-11-15T14:29:25;15.50;99.90
28837;DHT22;50669;50.982;11.022;2022-11-15T14:31:51;15.50;99.90
28837;DHT22;50669;50.982;11.022;2022-11-15T14:34:19;15.40;99.90
28837;DHT22;50669;50.982;11.022;2022-11-15T14:36:47;15.40;99.90
28837;DHT22;50669;50.982;11.022;2022-11-15T14:39:13;15.30;99.90
28837;DHT22;50669;50.982;11.022;2022-11-15T14:41:38;15.20;99.90
28837;DHT22;50669;50.982;11.022;2022-11-15T14:44:05;15.20;99.90
28837;DHT22;50669;50.982;11.022;2022-11-15T14:46:33;15.20;99.90
28837;DHT22;50669;50.982;11.022;2022-11-15T14:48:59;15.10;99.90
28837;DHT22;50669;50.982;11.022;2022-11-15T14:51:27;15.10;99.90
28837;DHT22;50669;50.982;11.022;2022-11-15T14:53:52;15.00;99.90
28837;DHT22;50669;50.982;11.022;2022-11-15T14:56:20;14.90;99.90
28837;DHT22;50669;50.982;11.022;2022-11-15T14:58:46;14.80;99.90
28837;DHT22;50669;50.982;11.022;2022-11-15T15:03:46;14.70;99.90
28837;DHT22;50669;50.982;11.022;2022-11-15T15:06:11;14.60;99.90
28837;DHT22;50669;50.982;11.022;2022-11-15T15:08:39;14.60;99.90
28837;DHT22;50669;50.982;11.022;2022-11-15T15:11:25;14.50;99.90
28837;DHT22;50669;50.982;11.022;2022-11-15T15:13:52;14.50;99.90
28837;DHT22;50669;50.982;11.022;2022-11-15T15:16:21;14.50;99.90
28837;DHT22;50669;50.982;11.022;2022-11-15T15:18:47;14.50;99.90
28837;DHT22;50669;50.982;11.022;2022-11-15T15:21:26;14.50;99.90
28837;DHT22;50669;50.982;11.022;2022-11-15T15:23:58;14.50;99.90
28837;DHT22;50669;50.982;11.022;2022-11-15T15:26:24;14.40;99.90
28837;DHT22;50669;50.982;11.022;2022-11-15T15:28:50;14.30;99.90
28837;DHT22;50669;50.982;11.022;2022-11-15T15:31:17;14.30;99.90
28837;DHT22;50669;50.982;11.022;2022-11-15T15:33:43;14.30;99.90
28837;DHT22;50669;50.982;11.022;2022-11-15T15:36:13;14.30;99.90
28837;DHT22;50669;50.982;11.022;2022-11-15T15:38:39;14.30;99.90
28837;DHT22;50669;50.982;11.022;2022-11-15T15:41:11;14.20;99.90
28837;DHT22;50669;50.982;11.022;2022-11-15T15:43:39;14.10;99.90
28837;DHT22;50669;50.982;11.022;2022-11-15T15:46:10;14.10;99.90
28837;DHT22;50669;50.982;11.022;2022-11-15T15:48:36;14.10;99.90
28837;DHT22;50669;50.982;11.022;2022-11-15T15:51:05;14.10;99.90
28837;DHT22;50669;50.982;11.022;2022-11-15T15:53:30;14.10;99.90
28837;DHT22;50669;50.982;11.022;2022-11-15T15:55:57;14.10;99.90
28837;DHT22;50669;50.982;11.022;2022-11-15T15:58:22;14.10;99.90
28837;DHT22;50669;50.982;11.022;2022-11-15T16:00:48;14.00;99.90
28837;DHT22;50669;50.982;11.022;2022-11-15T16:03:14;14.00;99.90
28837;DHT22;50669;50.982;11.022;2022-11-15T16:05:39;14.00;99.90
28837;DHT22;50669;50.982;11.022;2022-11-15T16:08:05;14.00;99.90
28837;DHT22;50669;50.982;11.022;2022-11-15T16:10:33;14.00;99.90
28837;DHT22;50669;50.982;11.022;2022-11-15T16:13:02;14.00;99.90
28837;DHT22;50669;50.982;11.022;2022-11-15T16:15:32;13.90;99.90
28837;DHT22;50669;50.982;11.022;2022-11-15T16:17:59;13.90;99.90
28837;DHT22;50669;50.982;11.022;2022-11-15T16:20:41;13.90;99.90
28837;DHT22;50669;50.982;11.022;2022-11-15T16:23:14;13.90;99.90
28837;DHT22;50669;50.982;11.022;2022-11-15T16:25:48;13.90;99.90
28837;DHT22;50669;50.982;11.022;2022-11-15T16:30:47;13.80;99.90
28837;DHT22;50669;50.982;11.022;2022-11-15T16:33:15;13.80;99.90
28837;DHT22;50669;50.982;11.022;2022-11-15T16:35:45;13.80;99.90
28837;DHT22;50669;50.982;11.022;2022-11-15T16:38:15;13.80;99.90
28837;DHT22;50669;50.982;11.022;2022-11-15T16:40:43;13.70;99.90
28837;DHT22;50669;50.982;11.022;2022-11-15T16:43:09;13.70;99.90
28837;DHT22;50669;50.982;11.022;2022-11-15T16:45:35;13.70;99.90
28837;DHT22;50669;50.982;11.022;2022-11-15T16:48:01;13.70;99.90
28837;DHT22;50669;50.982;11.022;2022-11-15T16:50:29;13.60;99.90
28837;DHT22;50669;50.982;11.022;2022-11-15T16:52:57;13.60;99.90
28837;DHT22;50669;50.982;11.022;2022-11-15T16:55:26;13.60;99.90
28837;DHT22;50669;50.982;11.022;2022-11-15T16:57:52;13.60;99.90
28837;DHT22;50669;50.982;11.022;2022-11-15T17:00:19;13.50;99.90
28837;DHT22;50669;50.982;11.022;2022-11-15T17:02:46;13.50;99.90
28837;DHT22;50669;50.982;11.022;2022-11-15T17:05:13;13.50;99.90
28837;DHT22;50669;50.982;11.022;2022-11-15T17:07:39;13.50;99.90
28837;DHT22;50669;50.982;11.022;2022-11-15T17:10:06;13.40;99.90
28837;DHT22;50669;50.982;11.022;2022-11-15T17:12:34;13.40;99.90
28837;DHT22;50669;50.982;11.022;2022-11-15T17:15:01;13.30;99.90
28837;DHT22;50669;50.982;11.022;2022-11-15T17:17:30;13.30;99.90
28837;DHT22;50669;50.982;11.022;2022-11-15T17:19:56;13.30;99.90
28837;DHT22;50669;50.982;11.022;2022-11-15T17:22:24;13.20;99.90
28837;DHT22;50669;50.982;11.022;2022-11-15T17:24:53;13.20;99.90
28837;DHT22;50669;50.982;11.022;2022-11-15T17:27:18;13.10;99.90
28837;DHT22;50669;50.982;11.022;2022-11-15T17:29:46;13.20;99.90
28837;DHT22;50669;50.982;11.022;2022-11-15T17:32:11;13.10;99.90
28837;DHT22;50669;50.982;11.022;2022-11-15T17:34:37;13.10;99.90
28837;DHT22;50669;50.982;11.022;2022-11-15T17:37:05;13.10;99.90
28837;DHT22;50669;50.982;11.022;2022-11-15T17:39:30;13.00;99.90
28837;DHT22;50669;50.982;11.022;2022-11-15T17:41:56;13.00;99.90
28837;DHT22;50669;50.982;11.022;2022-11-15T17:44:24;13.00;99.90
28837;DHT22;50669;50.982;11.022;2022-11-15T17:46:49;13.00;99.90
28837;DHT22;50669;50.982;11.022;2022-11-15T17:49:15;12.90;99.90
28837;DHT22;50669;50.982;11.022;2022-11-15T17:51:43;12.90;99.90
28837;DHT22;50669;50.982;11.022;2022-11-15T17:54:10;12.90;99.90
28837;DHT22;50669;50.982;11.022;2022-11-15T17:56:39;12.90;99.90
28837;DHT22;50669;50.982;11.022;2022-11-15T17:59:08;12.80;99.90
28837;DHT22;50669;50.982;11.022;2022-11-15T18:01:37;12.80;99.90
28837;DHT22;50669;50.982;11.022;2022-11-15T18:04:07;12.80;99.90
28837;DHT22;50669;50.982;11.022;2022-11-15T18:06:38;12.70;99.90
28837;DHT22;50669;50.982;11.022;2022-11-15T18:09:04;12.70;99.90